Time;durP1;ratioP1;P1;durP2;ratioP2;P2;SDS_P1;SDS_P2;PMS_P1;PMS_P2;Temp;Humidity;BMP_temperature;BMP_pressure;BME280_temperature;BME280_humidity;BME280_pressure;Samples;Min_cycle;Max_cycle;Signal;HPM_P1;HPM_P2
2023/06/26 00:00:01;;;;;;;8.82;6.10;;;;;;;19.96;44.38;96672.69;4957790;29;20155;-76
2023/06/26 00:02:32;;;;;;;7.85;6.07;;;;;;;19.94;44.42;96672.13;4957662;29;20047;-77
2023/06/26 00:05:02;;;;;;;6.47;5.50;;;;;;;19.93;44.49;96678.47;4957371;29;20519;-76
2023/06/26 00:07:33;;;;;;;8.00;6.22;;;;;;;19.93;44.58;96670.53;4957262;29;20051;-78
2023/06/26 00:10:02;;;;;;;7.90;5.43;;;;;;;19.92;44.45;96663.66;4957990;29;20047;-77
2023/06/26 00:12:30;;;;;;;6.70;5.65;;;;;;;19.92;44.56;96676.88;4957512;29;20051;-77
2023/06/26 00:14:58;;;;;;;6.57;5.07;;;;;;;19.97;44.62;96669.00;4957309;29;20051;-77
2023/06/26 00:17:26;;;;;;;6.15;4.97;;;;;;;20.08;44.72;96675.28;4957373;29;20051;-77
2023/06/26 00:19:54;;;;;;;9.55;5.70;;;;;;;20.15;44.04;96671.41;4957091;29;20059;-76
2023/06/26 00:22:22;;;;;;;7.60;6.18;;;;;;;20.21;44.52;96671.50;4957448;29;20073;-76
2023/06/26 00:24:52;;;;;;;6.35;5.70;;;;;;;20.33;44.23;96672.22;4957354;29;20074;-76
2023/06/26 00:27:19;;;;;;;6.40;5.50;;;;;;;20.38;43.90;96674.97;4957169;29;20118;-77
2023/06/26 00:29:47;;;;;;;7.75;5.80;;;;;;;20.43;43.59;96667.06;4957018;29;20055;-76
2023/06/26 00:32:14;;;;;;;6.95;5.80;;;;;;;20.45;43.74;96675.59;4957078;29;20495;-77
2023/06/26 00:34:42;;;;;;;7.30;5.43;;;;;;;20.48;43.37;96680.38;4956765;29;20055;-77
2023/06/26 00:37:09;;;;;;;7.38;6.13;;;;;;;20.47;43.56;96668.19;4957124;29;20059;-77
2023/06/26 00:39:37;;;;;;;6.25;5.47;;;;;;;20.46;43.58;96671.88;4957102;29;20142;-77
2023/06/26 00:42:07;;;;;;;7.55;5.47;;;;;;;20.49;43.43;96674.06;4956802;29;20079;-76
2023/06/26 00:44:36;;;;;;;6.63;5.90;;;;;;;20.54;43.67;96666.16;4956975;29;20131;-77
2023/06/26 00:47:04;;;;;;;7.03;6.25;;;;;;;20.58;43.60;96663.88;4957017;29;20047;-77
2023/06/26 00:49:31;;;;;;;7.60;6.20;;;;;;;20.59;43.60;96660.16;4956939;29;20098;-77
2023/06/26 00:51:59;;;;;;;8.10;5.32;;;;;;;20.60;43.94;96671.56;4956666;29;20503;-77
2023/06/26 00:54:27;;;;;;;8.73;5.57;;;;;;;20.57;43.94;96678.97;4956819;29;20114;-77
2023/06/26 00:56:55;;;;;;;7.97;5.90;;;;;;;20.52;44.03;96670.91;4956417;28;20063;-76
2023/06/26 00:59:24;;;;;;;8.10;6.10;;;;;;;20.51;44.21;96673.78;4956035;29;20498;-76
2023/06/26 01:01:51;;;;;;;6.10;5.47;;;;;;;20.53;44.56;96680.47;4956859;29;20129;-76
2023/06/26 01:04:19;;;;;;;7.60;5.95;;;;;;;20.58;44.37;96680.56;4956529;29;20052;-77
2023/06/26 01:06:48;;;;;;;6.90;5.97;;;;;;;20.58;44.13;96679.78;4956708;29;20055;-77
2023/06/26 01:09:18;;;;;;;7.95;5.82;;;;;;;20.49;44.25;96684.66;4967485;29;20139;-77
2023/06/26 01:11:46;;;;;;;7.60;6.05;;;;;;;20.36;44.59;96677.84;4974057;29;20071;-77
2023/06/26 01:14:14;;;;;;;8.00;6.75;;;;;;;20.27;44.80;96668.69;4974012;29;20062;-77
2023/06/26 01:16:47;;;;;;;7.15;6.03;;;;;;;20.20;45.29;96672.53;4974084;29;20058;-77
2023/06/26 01:19:24;;;;;;;6.72;5.95;;;;;;;20.05;45.24;96673.09;4970672;29;20454;-77
2023/06/26 01:21:58;;;;;;;7.97;5.85;;;;;;;19.96;45.54;96672.69;4971386;29;20071;-77
2023/06/26 01:24:31;;;;;;;6.68;5.85;;;;;;;19.88;45.55;96667.81;4963559;29;20055;-77
2023/06/26 01:27:02;;;;;;;8.00;6.05;;;;;;;19.86;45.68;96667.25;4958411;29;20423;-77
2023/06/26 01:29:33;;;;;;;11.02;6.80;;;;;;;19.83;45.77;96657.94;4956489;29;20055;-77
2023/06/26 01:32:01;;;;;;;8.15;6.47;;;;;;;19.80;45.93;96661.03;4956212;29;20051;-77
2023/06/26 01:34:30;;;;;;;6.82;6.03;;;;;;;19.75;46.03;96661.75;4956157;29;20539;-76
2023/06/26 01:36:58;;;;;;;6.95;6.05;;;;;;;19.72;46.36;96650.84;4955874;29;20114;-77
2023/06/26 01:39:25;;;;;;;7.03;5.93;;;;;;;19.72;46.41;96654.31;4956196;29;20131;-77
2023/06/26 01:41:53;;;;;;;7.50;6.53;;;;;;;19.80;46.30;96647.00;4956094;29;20047;-78
2023/06/26 01:44:29;;;;;;;7.82;5.35;;;;;;;19.85;46.36;96655.81;4955820;29;20579;-77
2023/06/26 01:47:02;;;;;;;8.05;5.82;;;;;;;19.92;46.06;96658.34;4955933;29;20426;-76
2023/06/26 01:49:38;;;;;;;6.45;5.75;;;;;;;19.95;46.25;96650.72;4955675;29;20055;-77
2023/06/26 01:52:15;;;;;;;8.23;6.60;;;;;;;19.88;46.40;96641.34;4955852;29;20126;-77
2023/06/26 01:54:49;;;;;;;7.00;5.93;;;;;;;19.80;46.71;96652.31;4955821;29;20082;-77
2023/06/26 01:57:19;;;;;;;8.13;6.47;;;;;;;19.67;46.88;96643.59;4955499;29;20054;-77
2023/06/26 01:59:48;;;;;;;12.65;6.45;;;;;;;19.60;47.03;96645.59;4955677;29;20118;-77
2023/06/26 02:02:16;;;;;;;8.18;5.90;;;;;;;19.53;47.10;96637.00;4955795;29;20051;-77
2023/06/26 02:04:43;;;;;;;10.57;6.45;;;;;;;19.49;47.13;96633.22;4955585;29;20047;-77
2023/06/26 02:07:11;;;;;;;6.97;6.22;;;;;;;19.47;46.99;96641.38;4955437;29;20090;-77
2023/06/26 02:09:39;;;;;;;6.82;6.10;;;;;;;19.50;46.57;96638.28;4954316;28;20170;-77
2023/06/26 02:12:07;;;;;;;8.45;6.38;;;;;;;19.53;46.60;96653.69;4955202;29;20423;-77
2023/06/26 02:14:34;;;;;;;7.45;6.57;;;;;;;19.52;46.67;96641.47;4955117;29;20051;-77
2023/06/26 02:17:04;;;;;;;7.28;6.50;;;;;;;19.48;46.86;96644.84;4955147;29;20055;-77
2023/06/26 02:19:31;;;;;;;6.70;6.00;;;;;;;19.46;46.89;96649.56;4955580;29;20059;-78
2023/06/26 02:21:59;;;;;;;7.43;6.63;;;;;;;19.42;47.03;96640.50;4955674;29;20063;-77
2023/06/26 02:24:29;;;;;;;8.02;6.43;;;;;;;19.39;47.13;96633.81;4955140;29;20487;-77
2023/06/26 02:26:57;;;;;;;8.10;6.03;;;;;;;19.39;47.05;96640.97;4955071;29;20121;-77
2023/06/26 02:29:25;;;;;;;8.48;6.20;;;;;;;19.34;47.12;96639.84;4955402;29;20510;-77
2023/06/26 02:31:53;;;;;;;8.73;6.38;;;;;;;19.31;47.04;96640.31;4955169;29;20179;-77
2023/06/26 02:34:22;;;;;;;8.65;6.63;;;;;;;19.30;47.08;96637.91;4955023;29;20052;-77
2023/06/26 02:36:49;;;;;;;6.72;6.03;;;;;;;19.29;46.99;96639.75;4955177;29;20147;-77
2023/06/26 02:39:17;;;;;;;7.65;6.65;;;;;;;19.30;46.96;96643.97;4954801;29;20114;-77
2023/06/26 02:41:45;;;;;;;7.43;5.78;;;;;;;19.29;47.01;96638.94;4954661;29;20522;-77
2023/06/26 02:44:13;;;;;;;8.13;6.38;;;;;;;19.27;46.88;96633.88;4955111;29;20098;-77
2023/06/26 02:46:41;;;;;;;8.55;6.47;;;;;;;19.27;46.83;96633.88;4954888;29;20086;-77
2023/06/26 02:49:08;;;;;;;6.15;5.53;;;;;;;19.27;46.81;96635.75;4954867;29;20142;-77
2023/06/26 02:51:38;;;;;;;8.40;6.38;;;;;;;19.26;47.00;96637.59;4954446;29;20466;-77
2023/06/26 02:54:05;;;;;;;8.75;6.20;;;;;;;19.24;46.98;96642.31;4954527;29;20079;-78
2023/06/26 02:56:33;;;;;;;7.57;6.22;;;;;;;19.23;47.09;96634.59;4954636;29;20131;-77
2023/06/26 02:59:03;;;;;;;8.10;6.25;;;;;;;19.22;46.99;96641.72;4954798;29;20057;-77
2023/06/26 03:01:30;;;;;;;7.45;6.53;;;;;;;19.21;47.06;96644.59;4954686;29;20051;-76
2023/06/26 03:04:00;;;;;;;7.97;6.28;;;;;;;19.18;47.28;96643.25;4954500;29;20051;-77
2023/06/26 03:06:28;;;;;;;6.97;5.82;;;;;;;19.15;47.14;96641.06;4954577;29;20110;-77
2023/06/26 03:08:57;;;;;;;7.78;6.95;;;;;;;19.12;47.51;96641.53;4954328;29;20570;-77
2023/06/26 03:11:24;;;;;;;7.82;6.72;;;;;;;19.09;47.49;96626.16;4954256;29;20491;-77
2023/06/26 03:13:52;;;;;;;8.63;6.65;;;;;;;19.10;47.56;96627.75;4954395;29;20047;-76
2023/06/26 03:16:19;;;;;;;8.07;6.68;;;;;;;19.09;47.50;96631.44;4953789;29;20055;-77
2023/06/26 03:18:47;;;;;;;6.95;6.00;;;;;;;19.07;47.49;96628.22;4954546;29;20055;-77
2023/06/26 03:21:15;;;;;;;7.68;6.40;;;;;;;19.05;47.43;96625.81;4953845;28;20051;-76
2023/06/26 03:23:42;;;;;;;7.22;6.15;;;;;;;19.04;47.52;96620.75;4954265;29;20430;-77
2023/06/26 03:26:14;;;;;;;6.55;5.45;;;;;;;19.04;47.66;96626.03;4954175;29;20061;-77
2023/06/26 03:28:41;;;;;;;7.95;6.68;;;;;;;19.02;47.65;96622.81;4954396;29;20110;-77
2023/06/26 03:31:09;;;;;;;7.82;6.88;;;;;;;19.02;47.78;96628.09;4954353;29;20235;-77
2023/06/26 03:33:38;;;;;;;10.27;6.57;;;;;;;18.98;47.98;96626.97;4954425;29;20055;-78
2023/06/26 03:36:06;;;;;;;9.70;6.20;;;;;;;18.93;48.05;96620.56;4953698;29;20058;-78
2023/06/26 03:38:34;;;;;;;7.90;6.43;;;;;;;18.92;48.23;96626.88;4954414;29;20051;-78
2023/06/26 03:41:02;;;;;;;8.13;6.55;;;;;;;18.90;48.14;96628.94;4954235;29;20508;-76
2023/06/26 03:43:31;;;;;;;9.10;6.78;;;;;;;18.89;48.32;96626.53;4958129;29;20055;-78
2023/06/26 03:45:58;;;;;;;7.75;6.57;;;;;;;18.88;48.34;96625.72;4969302;29;20051;-77
2023/06/26 03:48:26;;;;;;;7.53;6.03;;;;;;;18.88;48.42;96625.72;4970144;29;20059;-77
2023/06/26 03:50:54;;;;;;;8.25;6.20;;;;;;;18.89;48.46;96632.63;4968698;29;20055;-77
2023/06/26 03:53:21;;;;;;;8.18;6.13;;;;;;;18.92;48.49;96631.38;4961526;29;20489;-77
2023/06/26 03:55:49;;;;;;;8.85;6.53;;;;;;;18.96;48.36;96632.50;4954533;29;20047;-76
2023/06/26 03:58:16;;;;;;;9.80;6.75;;;;;;;18.97;48.34;96639.38;4954199;29;20087;-77
2023/06/26 04:00:47;;;;;;;8.07;6.32;;;;;;;19.02;48.22;96638.69;4954130;29;20511;-77
2023/06/26 04:03:14;;;;;;;8.20;6.32;;;;;;;19.07;48.09;96638.81;4954090;29;20078;-77
2023/06/26 04:05:42;;;;;;;7.00;6.13;;;;;;;19.09;48.07;96632.22;4954174;29;20051;-77
2023/06/26 04:08:10;;;;;;;11.63;6.35;;;;;;;19.12;47.98;96642.31;4953858;29;20066;-78
2023/06/26 04:10:37;;;;;;;9.57;6.18;;;;;;;19.16;48.07;96633.94;4964593;29;20055;-77
2023/06/26 04:13:05;;;;;;;8.77;6.45;;;;;;;19.19;48.06;96642.19;4966555;29;20074;-78
2023/06/26 04:15:32;;;;;;;7.30;6.20;;;;;;;19.24;47.68;96647.59;4956437;29;20616;-77
2023/06/26 04:18:02;;;;;;;7.50;5.78;;;;;;;19.30;47.79;96643.97;4954232;29;20125;-77
2023/06/26 04:20:30;;;;;;;7.75;6.18;;;;;;;19.34;47.54;96639.84;4954009;29;20077;-77
2023/06/26 04:22:58;;;;;;;9.20;6.07;;;;;;;19.38;47.53;96649.97;4953430;29;20058;-77
2023/06/26 04:25:29;;;;;;;8.27;6.30;;;;;;;19.40;47.34;96645.22;4953433;29;20082;-77
2023/06/26 04:27:56;;;;;;;7.65;6.45;;;;;;;19.42;47.27;96640.50;4953619;29;20602;-77
2023/06/26 04:30:24;;;;;;;11.05;6.63;;;;;;;19.43;47.33;96647.41;4953786;29;20048;-75
2023/06/26 04:32:51;;;;;;;9.10;6.00;;;;;;;19.44;47.55;96649.81;4953617;28;20083;-76
2023/06/26 04:35:21;;;;;;;7.38;6.57;;;;;;;19.45;47.65;96651.41;4956661;29;20047;-76
2023/06/26 04:37:48;;;;;;;6.97;6.13;;;;;;;19.49;47.42;96651.75;4956805;29;20055;-77
2023/06/26 04:40:16;;;;;;;9.55;6.75;;;;;;;19.51;47.66;96649.66;4956800;29;20142;-76
2023/06/26 04:42:43;;;;;;;6.88;6.07;;;;;;;19.51;47.38;96644.38;4956886;29;20075;-76
2023/06/26 04:45:11;;;;;;;8.45;6.38;;;;;;;19.55;47.42;96648.16;4956318;29;20530;-76
2023/06/26 04:47:39;;;;;;;7.72;6.57;;;;;;;19.55;47.65;96646.31;4956908;29;20058;-76
2023/06/26 04:50:09;;;;;;;7.07;6.35;;;;;;;19.55;47.75;96643.66;4956517;29;20086;-76
2023/06/26 04:52:38;;;;;;;7.28;6.15;;;;;;;19.55;47.85;96651.59;4956040;29;20051;-76
2023/06/26 04:55:06;;;;;;;7.22;6.13;;;;;;;19.55;47.83;96650.81;4956694;29;20065;-77
2023/06/26 04:57:33;;;;;;;8.13;6.18;;;;;;;19.57;47.86;96648.72;4956151;29;20047;-76
2023/06/26 05:00:01;;;;;;;7.18;6.25;;;;;;;19.63;47.82;96645.09;4956403;29;20057;-76
2023/06/26 05:02:29;;;;;;;7.80;6.07;;;;;;;19.67;47.96;96643.59;4956161;29;20094;-77
2023/06/26 05:04:57;;;;;;;10.27;6.93;;;;;;;19.71;48.12;96644.75;4956422;29;20103;-77
2023/06/26 05:07:24;;;;;;;8.50;6.40;;;;;;;19.75;47.98;96637.94;4957300;29;20083;-77
2023/06/26 05:09:53;;;;;;;7.47;6.43;;;;;;;19.81;48.26;96643.31;4957882;29;20122;-76
2023/06/26 05:12:21;;;;;;;7.53;6.30;;;;;;;19.88;48.09;96638.69;4955855;29;20514;-76
2023/06/26 05:14:49;;;;;;;7.68;5.90;;;;;;;19.96;48.08;96636.44;4956329;29;20051;-76
2023/06/26 05:17:16;;;;;;;8.00;6.18;;;;;;;20.05;47.89;96639.50;4956261;29;20408;-77
2023/06/26 05:19:44;;;;;;;7.55;6.18;;;;;;;20.13;47.63;96646.22;4956291;29;20061;-77
2023/06/26 05:22:13;;;;;;;7.65;6.43;;;;;;;20.20;47.63;96638.91;4955751;29;20504;-76
2023/06/26 05:24:41;;;;;;;7.63;6.03;;;;;;;20.26;47.38;96631.84;4956339;29;20058;-77
2023/06/26 05:27:19;;;;;;;7.97;6.07;;;;;;;20.32;47.13;96634.31;4956046;29;20139;-78
2023/06/26 05:29:47;;;;;;;7.20;5.95;;;;;;;20.37;47.01;96638.91;4953945;29;20055;-77
2023/06/26 05:32:17;;;;;;;9.43;6.45;;;;;;;20.44;47.03;96638.72;4956919;29;20051;-78
2023/06/26 05:34:47;;;;;;;7.82;6.00;;;;;;;20.47;47.10;96638.25;4958844;29;20054;-78
2023/06/26 05:37:20;;;;;;;8.82;6.40;;;;;;;20.53;47.16;96638.09;4958337;29;20106;-77
2023/06/26 05:39:49;;;;;;;9.05;6.30;;;;;;;20.58;47.06;96635.53;4957974;29;20115;-79
2023/06/26 05:42:20;;;;;;;8.30;6.15;;;;;;;20.61;46.94;96636.88;4953037;29;20055;-78
2023/06/26 05:44:48;;;;;;;9.80;6.55;;;;;;;20.66;46.96;96634.31;4958146;28;20079;-77
2023/06/26 05:47:15;;;;;;;10.45;6.63;;;;;;;20.70;46.91;96637.25;4957931;29;20083;-78
2023/06/26 05:49:43;;;;;;;8.95;7.07;;;;;;;20.73;47.17;96632.28;4958670;29;20055;-78
2023/06/26 05:52:12;;;;;;;11.00;6.57;;;;;;;20.81;47.10;96635.53;4959377;29;20503;-77
2023/06/26 05:54:40;;;;;;;8.38;6.63;;;;;;;20.86;46.99;96631.13;4956489;29;20161;-77
2023/06/26 05:57:08;;;;;;;7.35;6.22;;;;;;;20.93;47.06;96629.06;4955618;29;20129;-77
2023/06/26 05:59:40;;;;;;;9.07;7.47;;;;;;;21.01;46.92;96634.97;4955122;29;20051;-78
2023/06/26 06:02:08;;;;;;;9.02;6.15;;;;;;;21.07;46.93;96631.34;4956302;29;20043;-79
2023/06/26 06:04:37;;;;;;;10.20;6.35;;;;;;;21.14;46.99;96631.94;4956413;29;20055;-78
2023/06/26 06:07:05;;;;;;;6.57;5.97;;;;;;;21.20;46.98;96634.41;4956115;29;20058;-77
2023/06/26 06:09:33;;;;;;;9.32;6.55;;;;;;;21.27;47.09;96634.22;4956348;29;20511;-78
2023/06/26 06:12:05;;;;;;;10.27;7.03;;;;;;;21.33;47.18;96625.25;4959666;29;20470;-78
2023/06/26 06:14:33;;;;;;;10.18;7.60;;;;;;;21.42;46.97;96635.47;4960941;29;20051;-78
2023/06/26 06:17:03;;;;;;;11.98;9.43;;;;;;;21.49;46.93;96630.75;4972772;29;20047;-78
2023/06/26 06:19:30;;;;;;;7.80;6.20;;;;;;;21.56;46.56;96631.38;4970381;29;20057;-78
2023/06/26 06:21:58;;;;;;;7.80;6.45;;;;;;;21.63;46.77;96633.81;4958400;29;20052;-78
2023/06/26 06:24:25;;;;;;;6.45;5.80;;;;;;;21.69;47.01;96638.09;4948467;29;20050;-77
2023/06/26 06:26:54;;;;;;;11.90;9.10;;;;;;;21.76;47.17;96636.88;4950049;29;20223;-78
2023/06/26 06:29:22;;;;;;;27.75;20.80;;;;;;;21.84;46.86;96632.94;4945658;29;20102;-78
2023/06/26 06:32:04;;;;;;;13.38;10.30;;;;;;;21.90;46.90;96631.13;4947434;29;20063;-78
2023/06/26 06:34:32;;;;;;;9.10;7.05;;;;;;;21.97;46.56;96634.38;4944788;29;20043;-78
2023/06/26 06:37:00;;;;;;;7.47;6.50;;;;;;;22.03;46.07;96630.72;4954391;29;20047;-77
2023/06/26 06:39:27;;;;;;;8.45;6.53;;;;;;;22.12;46.21;96631.84;4954791;29;20050;-78
2023/06/26 06:41:55;;;;;;;8.65;5.78;;;;;;;22.19;45.97;96635.09;4956088;29;20078;-78
2023/06/26 06:44:23;;;;;;;7.80;5.70;;;;;;;22.28;45.85;96637.28;4955191;29;20110;-78
2023/06/26 06:46:50;;;;;;;8.65;6.65;;;;;;;22.35;44.73;96638.69;4955083;29;20110;-78
2023/06/26 06:49:19;;;;;;;7.10;6.35;;;;;;;22.46;44.99;96644.06;4955969;29;20055;-78
2023/06/26 06:51:47;;;;;;;8.13;6.65;;;;;;;22.55;45.08;96637.19;4955388;29;20051;-79
2023/06/26 06:54:16;;;;;;;35.72;24.75;;;;;;;22.64;45.13;96643.63;4954456;29;20047;-76
2023/06/26 06:56:44;;;;;;;49.35;37.88;;;;;;;22.71;45.12;96649.50;4954504;28;20471;-76
2023/06/26 06:59:12;;;;;;;9.85;8.43;;;;;;;22.80;44.34;96633.88;4956063;29;20058;-77
2023/06/26 07:01:41;;;;;;;8.25;6.95;;;;;;;22.88;44.14;96643.22;4966925;29;20047;-77
2023/06/26 07:04:09;;;;;;;8.38;6.65;;;;;;;22.99;44.63;96637.66;4967240;29;20534;-77
2023/06/26 07:06:38;;;;;;;7.85;6.10;;;;;;;23.08;44.14;96640.66;4955831;29;20067;-77
2023/06/26 07:09:06;;;;;;;8.77;5.43;;;;;;;23.17;43.55;96640.97;4956404;29;20063;-77
2023/06/26 07:11:34;;;;;;;7.63;6.25;;;;;;;23.26;43.26;96643.91;4955104;29;20183;-77
2023/06/26 07:14:01;;;;;;;6.25;5.43;;;;;;;23.34;42.97;96646.88;4955502;29;20039;-79
2023/06/26 07:16:29;;;;;;;6.32;5.72;;;;;;;23.40;42.96;96637.84;4954783;29;20582;-71
2023/06/26 07:18:57;;;;;;;6.63;5.68;;;;;;;23.48;42.66;96643.69;4956647;29;20130;-75
2023/06/26 07:21:24;;;;;;;27.15;20.63;;;;;;;23.54;42.56;96646.13;4954618;29;20059;-74
2023/06/26 07:23:54;;;;;;;44.55;30.30;;;;;;;23.63;42.60;96641.06;4953599;29;20051;-75
2023/06/26 07:26:22;;;;;;;7.88;6.75;;;;;;;23.75;42.04;96636.34;4953699;29;20047;-75
2023/06/26 07:29:06;;;;;;;6.28;5.50;;;;;;;23.90;41.59;96642.72;4953577;29;20131;-76
2023/06/26 07:31:34;;;;;;;6.18;5.57;;;;;;;24.00;41.62;96635.53;4953863;29;20055;-75
2023/06/26 07:34:02;;;;;;;5.90;5.30;;;;;;;24.15;41.88;96636.59;4943835;29;20578;-76
2023/06/26 07:36:29;;;;;;;6.43;5.13;;;;;;;24.26;41.35;96638.97;4953687;29;20051;-76
2023/06/26 07:38:58;;;;;;;6.40;5.55;;;;;;;24.37;41.38;96645.09;4952801;29;20110;-75
2023/06/26 07:41:26;;;;;;;8.70;5.70;;;;;;;24.49;40.85;96631.53;4952844;29;20130;-76
2023/06/26 07:43:54;;;;;;;6.43;5.40;;;;;;;24.60;40.82;96643.75;4953808;29;20106;-76
2023/06/26 07:46:21;;;;;;;6.63;5.50;;;;;;;24.74;40.44;96635.19;4954025;29;20083;-76
2023/06/26 07:48:49;;;;;;;5.78;4.90;;;;;;;24.83;40.60;96637.00;4955174;29;20051;-76
2023/06/26 07:51:16;;;;;;;7.07;5.30;;;;;;;24.97;40.74;96637.25;4954570;29;20222;-76
2023/06/26 07:53:44;;;;;;;7.10;5.10;;;;;;;25.08;40.35;96641.47;4954253;29;20051;-78
2023/06/26 07:56:13;;;;;;;7.70;4.93;;;;;;;25.19;39.60;96638.72;4954506;29;20479;-77
2023/06/26 07:58:41;;;;;;;6.25;5.65;;;;;;;25.26;39.29;96639.28;4954705;29;20055;-77
2023/06/26 08:01:08;;;;;;;6.32;5.50;;;;;;;25.32;39.20;96643.53;4954139;29;20396;-77
2023/06/26 08:03:36;;;;;;;9.48;4.68;;;;;;;25.39;39.11;96644.00;4954936;29;20578;-76
2023/06/26 08:06:04;;;;;;;7.10;5.30;;;;;;;25.48;39.34;96639.69;4953312;29;20062;-76
2023/06/26 08:08:32;;;;;;;5.45;4.90;;;;;;;25.60;39.06;96638.53;4958009;28;20047;-77
2023/06/26 08:10:59;;;;;;;6.43;5.25;;;;;;;25.73;39.22;96639.78;4957970;29;20138;-76
2023/06/26 08:13:29;;;;;;;6.78;6.07;;;;;;;25.84;38.03;96638.63;4959087;29;20550;-76
2023/06/26 08:15:57;;;;;;;6.95;5.85;;;;;;;25.93;37.83;96639.66;4958804;29;20055;-77
2023/06/26 08:18:24;;;;;;;7.95;5.50;;;;;;;26.02;37.45;96639.84;4958969;29;20137;-76
2023/06/26 08:20:52;;;;;;;12.30;5.53;;;;;;;26.10;36.80;96641.94;4958048;29;20055;-77
2023/06/26 08:23:20;;;;;;;6.43;5.75;;;;;;;26.21;36.56;96638.09;4957925;29;20102;-75
2023/06/26 08:25:53;;;;;;;5.43;4.93;;;;;;;26.29;36.37;96639.38;4958619;29;20126;-77
2023/06/26 08:28:20;;;;;;;6.78;5.38;;;;;;;26.38;35.48;96644.91;4957108;29;20067;-77
2023/06/26 08:30:49;;;;;;;5.95;4.93;;;;;;;26.43;35.74;96644.84;4957535;29;20494;-77
2023/06/26 08:33:17;;;;;;;5.88;4.90;;;;;;;26.49;35.57;96636.50;4957352;29;20055;-77
2023/06/26 08:35:44;;;;;;;5.43;4.93;;;;;;;26.58;35.58;96628.69;4956802;29;20059;-76
2023/06/26 08:38:12;;;;;;;6.32;5.50;;;;;;;26.70;35.65;96634.44;4956992;29;20055;-77
2023/06/26 08:40:40;;;;;;;5.55;4.90;;;;;;;26.80;35.17;96636.19;4956833;29;20078;-78
2023/06/26 08:43:08;;;;;;;6.32;5.72;;;;;;;26.90;35.28;96635.28;4956481;29;20165;-76
2023/06/26 08:45:36;;;;;;;6.45;5.22;;;;;;;27.02;35.06;96635.66;4953558;29;20051;-76
2023/06/26 08:48:08;;;;;;;5.65;5.07;;;;;;;27.09;34.42;96630.78;4937149;29;20052;-77
2023/06/26 08:50:39;;;;;;;5.78;4.63;;;;;;;27.18;34.94;96633.63;4946828;29;20139;-78
2023/06/26 08:53:14;;;;;;;6.03;5.25;;;;;;;27.27;34.64;96625.75;4955816;29;20047;-79
2023/06/26 08:55:43;;;;;;;4.55;4.15;;;;;;;27.37;34.75;96630.16;4940389;29;20090;-76
2023/06/26 08:58:12;;;;;;;4.90;4.40;;;;;;;27.43;35.06;96623.66;4956163;29;20051;-77
2023/06/26 09:00:40;;;;;;;5.50;4.90;;;;;;;27.46;34.82;96623.88;4956506;29;20047;-78
2023/06/26 09:03:10;;;;;;;5.85;5.03;;;;;;;27.50;34.48;96618.72;4957557;29;20058;-78
2023/06/26 09:05:38;;;;;;;6.00;4.97;;;;;;;27.60;34.72;96623.16;4957264;29;20130;-79
2023/06/26 09:08:06;;;;;;;5.10;4.60;;;;;;;27.69;34.70;96622.19;4956646;29;20059;-79
2023/06/26 09:10:34;;;;;;;7.05;5.32;;;;;;;27.79;34.34;96631.97;4957386;29;20047;-79
2023/06/26 09:13:03;;;;;;;5.03;4.55;;;;;;;27.85;33.87;96630.81;4956443;29;20423;-78
2023/06/26 09:15:39;;;;;;;4.97;4.47;;;;;;;27.88;33.75;96626.78;4956007;29;20420;-78
2023/06/26 09:18:07;;;;;;;4.85;4.25;;;;;;;27.93;33.97;96618.66;4955983;28;20375;-77
2023/06/26 09:20:37;;;;;;;5.28;4.78;;;;;;;28.03;34.02;96625.72;4956063;29;20066;-78
2023/06/26 09:23:05;;;;;;;5.38;4.78;;;;;;;28.12;34.03;96629.34;4956587;29;20109;-78
2023/06/26 09:25:32;;;;;;;5.90;5.03;;;;;;;28.20;33.98;96625.97;4956475;29;20393;-77
2023/06/26 09:28:00;;;;;;;7.15;5.28;;;;;;;28.25;34.00;96628.56;4955967;29;20051;-77
2023/06/26 09:30:28;;;;;;;5.70;5.10;;;;;;;28.27;33.80;96628.25;4955883;29;20095;-76
2023/06/26 09:32:55;;;;;;;9.75;5.32;;;;;;;28.27;34.43;96626.41;4957068;29;20483;-76
2023/06/26 09:35:24;;;;;;;6.15;5.20;;;;;;;28.29;34.52;96631.44;4956219;29;20062;-76
2023/06/26 09:37:53;;;;;;;4.88;4.47;;;;;;;28.37;34.00;96635.34;4937788;29;20130;-77
2023/06/26 09:40:21;;;;;;;6.68;4.75;;;;;;;28.42;34.11;96628.00;4942356;29;20102;-76
2023/06/26 09:42:49;;;;;;;6.63;5.32;;;;;;;28.49;33.84;96622.25;4956299;29;20059;-76
2023/06/26 09:45:21;;;;;;;8.50;5.35;;;;;;;28.55;33.70;96629.13;4948304;29;20103;-76
2023/06/26 09:47:48;;;;;;;7.28;5.20;;;;;;;28.59;34.01;96624.75;4955429;29;20062;-77
2023/06/26 09:50:23;;;;;;;5.85;4.90;;;;;;;28.63;33.75;96611.56;4954943;29;20514;-77
2023/06/26 09:52:52;;;;;;;6.05;5.30;;;;;;;28.69;33.69;96610.38;4955059;29;20495;-75
2023/06/26 09:55:22;;;;;;;6.40;5.38;;;;;;;28.79;33.82;96604.00;4955176;29;20047;-76
2023/06/26 09:57:51;;;;;;;4.95;4.55;;;;;;;28.90;33.67;96605.38;4955090;29;20517;-75
2023/06/26 10:00:19;;;;;;;5.35;4.85;;;;;;;28.95;34.21;96610.63;4954595;29;20044;-76
2023/06/26 10:02:47;;;;;;;6.35;4.60;;;;;;;29.03;33.77;96604.56;4954748;29;20053;-76
2023/06/26 10:05:15;;;;;;;5.30;4.78;;;;;;;29.11;34.00;96609.25;4954271;29;20052;-76
2023/06/26 10:07:43;;;;;;;5.05;4.55;;;;;;;29.15;33.12;96602.19;4954772;29;20051;-77
2023/06/26 10:10:12;;;;;;;4.88;4.40;;;;;;;29.20;33.09;96609.34;4955120;29;20078;-77
2023/06/26 10:12:41;;;;;;;5.47;4.60;;;;;;;29.26;32.43;96605.47;4954219;29;20054;-77
2023/06/26 10:15:12;;;;;;;5.13;4.45;;;;;;;29.34;32.22;96606.63;4957674;29;20047;-84
2023/06/26 10:17:44;;;;;;;5.95;4.32;;;;;;;29.33;31.46;96603.16;4960326;29;20051;-78
2023/06/26 10:20:13;;;;;;;4.88;3.97;;;;;;;29.37;32.63;96598.75;4954902;29;20059;-77
2023/06/26 10:22:44;;;;;;;4.72;4.10;;;;;;;29.44;31.19;96592.97;4954604;29;20055;-76
2023/06/26 10:25:13;;;;;;;;;;;;;;;29.52;32.02;96608.38;4954062;29;20053;-77
2023/06/26 10:27:45;;;;;;;4.25;3.85;;;;;;;29.49;31.18;96592.84;4955760;29;20334;-76
2023/06/26 10:30:17;;;;;;;4.65;4.20;;;;;;;29.49;31.06;96595.53;4954369;28;20475;-77
2023/06/26 10:32:46;;;;;;;4.88;4.32;;;;;;;29.55;30.83;96607.75;4954791;29;20059;-77
2023/06/26 10:35:14;;;;;;;4.55;3.83;;;;;;;29.60;29.84;96598.78;4954141;29;20073;-77
2023/06/26 10:37:42;;;;;;;4.60;4.20;;;;;;;29.62;29.82;96603.84;4954266;29;20055;-77
2023/06/26 10:40:10;;;;;;;7.80;3.90;;;;;;;29.66;30.03;96604.84;4974823;23;20062;-79
2023/06/26 10:42:39;;;;;;;5.60;3.70;;;;;;;29.68;29.56;96605.34;4955731;29;20063;-80
2023/06/26 10:45:15;;;;;;;4.63;4.13;;;;;;;29.69;29.78;96604.25;4956233;29;20082;-81
2023/06/26 10:47:46;;;;;;;4.72;4.03;;;;;;;29.77;29.66;96595.47;4960464;29;20146;-80
2023/06/26 10:50:20;;;;;;;4.55;4.15;;;;;;;29.89;29.81;96600.28;4946623;29;20134;-80
2023/06/26 10:53:15;;;;;;;5.32;4.60;;;;;;;30.01;29.76;96595.13;4948056;29;20078;-81
2023/06/26 10:55:44;;;;;;;5.00;4.50;;;;;;;30.05;29.42;96611.47;4959119;29;20047;-82
2023/06/26 10:58:41;;;;;;;5.85;4.55;;;;;;;30.05;29.81;96606.88;4944094;29;20051;-81
2023/06/26 11:01:21;;;;;;;6.13;5.00;;;;;;;30.04;29.62;96597.19;4937217;28;20061;-82
2023/06/26 11:04:02;;;;;;;5.60;4.75;;;;;;;30.04;29.74;96599.09;4963724;29;20055;-81
2023/06/26 11:06:31;;;;;;;4.77;4.37;;;;;;;30.09;30.10;96602.47;4953616;29;20103;-82
2023/06/26 11:09:10;;;;;;;5.10;4.65;;;;;;;30.19;30.20;96596.03;4953107;29;20274;-82
2023/06/26 11:12:01;;;;;;;5.18;4.55;;;;;;;30.24;29.59;96605.84;4959221;29;20055;-82
2023/06/26 11:14:32;;;;;;;5.25;4.78;;;;;;;30.24;29.53;96609.38;4956204;29;20044;-82
2023/06/26 11:17:03;;;;;;;5.47;4.97;;;;;;;30.28;29.77;96596.88;4952966;29;20048;-82
2023/06/26 11:19:31;;;;;;;;;;;;;;;30.36;30.04;96604.22;4949428;29;20051;-82
2023/06/26 11:22:01;;;;;;;5.35;4.82;;;;;;;30.42;29.94;96587.94;4949105;29;19953;-82
2023/06/26 11:24:31;;;;;;;4.75;4.35;;;;;;;30.47;30.00;96601.25;4946589;29;20056;-81
2023/06/26 11:27:02;;;;;;;5.05;3.92;;;;;;;30.44;29.32;96600.00;4963645;29;20574;-83
2023/06/26 11:29:31;;;;;;;5.65;4.93;;;;;;;30.42;29.54;96596.81;4964299;29;20047;-82
2023/06/26 11:32:02;;;;;;;5.97;4.45;;;;;;;30.45;29.82;96592.69;4964767;29;20047;-82
2023/06/26 11:34:33;;;;;;;6.45;4.53;;;;;;;30.55;30.50;96597.81;4968025;29;20056;-82
2023/06/26 11:37:02;;;;;;;5.60;4.90;;;;;;;30.63;30.28;96588.97;4947456;29;20060;-81
2023/06/26 11:39:30;;;;;;;4.75;4.35;;;;;;;30.70;30.03;96583.13;4945835;29;20075;-82
2023/06/26 11:42:00;;;;;;;5.40;4.90;;;;;;;30.73;29.56;96594.06;4966350;28;20062;-82